Budaghers, New Mexico
Current Conditions -  °F | °C
As of 4:35 AM on Friday 28 Nov 2014 (Local Time) from KAEG Reporting Station
Clear Clear  
Wind Chill: 26°   Ceiling: Unl
Heat Index: 26°   Visibility: 10mi
Dew Point: 13°   Wind: 0mph
Humidity: 59%   Direction: NA
Pressure: 30.29"   Gusts: NA
Location:  35.4656°N, 106.615°W
Report Text: KAEG 281135Z AUTO 00000KT 10SM CLR M03/M10 A3029 RMK AO2 T10341104
Loading
Personal Weather Stations






























Interactive Weather Map New forecast layout! Learn more

10-Day Weather Forecast

Advertisements
Track Severe Weather on mobile